Gijón Campus
latitud = 43° 31' 23''N | Longitud = 005° 37' 16''W | altura s/n = 26m
fecha-hora | temperatura | viento dirección-velocidad-rachas | humedad | presión

  • 11-04-2019 21:00:00 | 15.80°C | Este-11.00 km/h - 28.00 km/h | 63.00% | 0.00 hPa
  • 11-04-2019 20:00:00 | 16.50°C | Nordeste-14.00 km/h - 24.00 km/h | 60.00% | 0.00 hPa
  • 11-04-2019 19:00:00 | 17.80°C | Sur-13.00 km/h - 24.00 km/h | 47.00% | 0.00 hPa
  • 11-04-2019 18:00:00 | 18.20°C | Sur-14.00 km/h - 28.00 km/h | 48.00% | 0.00 hPa
  • 11-04-2019 17:00:00 | 19.40°C | Sudeste-17.00 km/h - 32.00 km/h | 36.00% | 0.00 hPa
  • 11-04-2019 16:00:00 | 19.50°C | Sudeste-19.00 km/h - 30.00 km/h | 33.00% | 0.00 hPa
  • 11-04-2019 15:00:00 | 19.50°C | Sudeste-19.00 km/h - 28.00 km/h | 31.00% | 0.00 hPa
  • 11-04-2019 14:00:00 | 19.70°C | Este-18.00 km/h - 30.00 km/h | 32.00% | 0.00 hPa
  • 11-04-2019 13:00:00 | 19.90°C | Este-8.00 km/h - 22.00 km/h | 30.00% | 0.00 hPa
  • 11-04-2019 12:00:00 | 18.20°C | Oeste-13.00 km/h - 41.00 km/h | 33.00% | 0.00 hPa
  • 11-04-2019 11:00:00 | 16.00°C | Noroeste-23.00 km/h - 39.00 km/h | 40.00% | 1011.80 hPa
  • 11-04-2019 10:00:00 | 14.80°C | Oeste-26.00 km/h - 41.00 km/h | 44.00% | 1011.80 hPa
  • 11-04-2019 09:00:00 | 13.00°C | Noroeste-26.00 km/h - 41.00 km/h | 50.00% | 1011.20 hPa
  • 11-04-2019 08:00:00 | 11.70°C | Noroeste-25.00 km/h - 35.00 km/h | 55.00% | 1010.90 hPa
  • 11-04-2019 07:00:00 | 11.80°C | Noroeste-26.00 km/h - 33.00 km/h | 55.00% | 1010.60 hPa
  • 11-04-2019 06:00:00 | 12.00°C | Noroeste-21.00 km/h - 32.00 km/h | 56.00% | 1010.30 hPa
  • 11-04-2019 05:00:00 | 12.10°C | Noroeste-16.00 km/h - 30.00 km/h | 56.00% | 1010.20 hPa
  • 11-04-2019 04:00:00 | 12.30°C | Oeste-19.00 km/h - 26.00 km/h | 56.00% | 1010.20 hPa
  • 11-04-2019 03:00:00 | 12.70°C | Oeste-14.00 km/h - 33.00 km/h | 55.00% | 1010.40 hPa
  • 11-04-2019 02:00:00 | 13.40°C | Noroeste-24.00 km/h - 41.00 km/h | 52.00% | 1010.40 hPa
  • 11-04-2019 01:00:00 | 13.60°C | Noroeste-26.00 km/h - 41.00 km/h | 52.00% | 1010.50 hPa
  • 11-04-2019 00:00:00 | 13.40°C | Oeste-17.00 km/h - 26.00 km/h | 54.00% | 1010.40 hPa
  • 10-04-2019 23:00:00 | 13.00°C | Oeste-17.00 km/h - 26.00 km/h | 60.00% | 1010.60 hPa
  • 10-04-2019 22:00:00 | 14.30°C | Oeste-18.00 km/h - 26.00 km/h | 53.00% | 1010.10 hPa
    • diseño web asturias Información sobre el estado de las mareas, altura de la marejada, temperatura del agua y otros datos de Gijón en Asturias.

      Surf Gijón